Time;durP1;ratioP1;P1;durP2;ratioP2;P2;SDS_P1;SDS_P2;PMS_P1;PMS_P2;Temp;Humidity;BMP_temperature;BMP_pressure;BME280_temperature;BME280_humidity;BME280_pressure;Samples;Min_cycle;Max_cycle;Signal;HPM_P1;HPM_P2
2022/04/26 03:37:17;;;;;;;4.63;3.03;;;12.20;99.90;;;;;;4995934;28;20262;-92
2022/04/26 03:39:44;;;;;;;6.93;3.53;;;12.20;99.90;;;;;;4978677;28;20173;-92
2022/04/26 03:42:10;;;;;;;4.10;3.17;;;12.10;99.90;;;;;;4978402;28;20241;-91
2022/04/26 03:44:35;;;;;;;6.67;3.40;;;12.30;99.90;;;;;;4989856;28;20251;-93
2022/04/26 03:47:01;;;;;;;6.27;3.60;;;12.30;99.90;;;;;;4986718;28;20278;-91
2022/04/26 03:49:27;;;;;;;6.50;3.40;;;12.30;99.90;;;;;;4983309;28;20258;-92
2022/04/26 03:51:53;;;;;;;9.07;3.30;;;12.20;99.90;;;;;;4978314;28;20252;-92
2022/04/26 03:54:23;;;;;;;5.90;3.47;;;12.00;99.90;;;;;;4977914;28;20181;-93
2022/04/26 03:56:48;;;;;;;4.93;3.03;;;12.20;99.90;;;;;;4995856;28;20211;-92
2022/04/26 03:59:15;;;;;;;7.00;3.40;;;12.20;99.90;;;;;;4998094;28;20693;-92
2022/04/26 04:01:41;;;;;;;5.27;3.27;;;12.20;99.90;;;;;;4981448;28;20253;-91
2022/04/26 04:04:07;;;;;;;7.17;3.67;;;12.20;99.90;;;;;;4996649;28;20196;-91
2022/04/26 04:06:32;;;;;;;5.63;3.13;;;12.30;99.90;;;;;;5007502;28;20177;-92
2022/04/26 04:08:59;;;;;;;11.40;3.37;;;12.40;99.90;;;;;;5003478;28;20247;-95
2022/04/26 04:11:24;;;;;;;4.77;3.67;;;12.20;99.90;;;;;;5001951;28;20198;-96
2022/04/26 04:13:50;;;;;;;7.10;3.20;;;12.30;99.90;;;;;;4993649;28;20235;-95
2022/04/26 04:16:16;;;;;;;6.97;3.33;;;12.20;99.90;;;;;;4978883;28;20248;-96
2022/04/26 04:21:26;;;;;;;6.50;3.37;;;12.00;99.90;;;;;;5006007;28;20269;-95
2022/04/26 04:23:51;;;;;;;7.33;3.70;;;12.00;99.90;;;;;;4994474;28;20275;-95
2022/04/26 04:26:19;;;;;;;5.77;3.90;;;11.80;99.90;;;;;;4985789;28;20619;-94
2022/04/26 04:28:45;;;;;;;9.33;3.70;;;12.00;99.90;;;;;;4995460;28;20637;-95
2022/04/26 04:31:11;;;;;;;6.17;3.57;;;12.10;99.90;;;;;;4996064;28;20200;-94
2022/04/26 04:33:37;;;;;;;9.70;3.57;;;11.90;99.90;;;;;;4993658;28;20173;-94
2022/04/26 04:36:03;;;;;;;9.20;3.80;;;11.70;99.90;;;;;;4996300;28;20626;-94
2022/04/26 04:38:29;;;;;;;5.97;3.70;;;11.70;99.90;;;;;;4996141;28;20680;-95
2022/04/26 04:40:55;;;;;;;8.83;3.70;;;11.80;99.90;;;;;;4996056;28;20189;-93
2022/04/26 04:43:21;;;;;;;7.00;3.60;;;11.80;99.90;;;;;;4995031;28;20267;-93
2022/04/26 04:45:47;;;;;;;5.43;4.10;;;11.90;99.90;;;;;;4992902;28;20181;-95
2022/04/26 04:48:13;;;;;;;8.87;4.40;;;11.90;99.90;;;;;;4990925;28;20227;-93
2022/04/26 04:50:39;;;;;;;7.73;3.93;;;11.80;99.90;;;;;;4993618;28;20626;-94
2022/04/26 04:53:05;;;;;;;7.83;3.90;;;11.90;99.90;;;;;;4996649;28;20655;-95
2022/04/26 04:55:30;;;;;;;5.93;3.77;;;11.90;99.90;;;;;;4998207;28;20281;-95
2022/04/26 04:57:56;;;;;;;4.77;3.70;;;12.00;99.90;;;;;;4997553;28;20549;-94
2022/04/26 05:00:22;;;;;;;10.93;4.03;;;12.00;99.90;;;;;;4978568;28;20189;-94
2022/04/26 05:02:48;;;;;;;6.37;4.27;;;12.20;99.90;;;;;;4980334;28;20211;-95
2022/04/26 05:05:13;;;;;;;8.60;4.30;;;12.30;99.90;;;;;;4976625;28;20182;-95
2022/04/26 05:07:40;;;;;;;6.03;3.90;;;12.10;99.90;;;;;;4977007;28;20623;-93
2022/04/26 05:10:06;;;;;;;11.83;4.53;;;12.00;99.90;;;;;;4984175;28;20181;-94
2022/04/26 05:12:34;;;;;;;9.57;3.90;;;12.10;99.90;;;;;;4995210;28;20201;-95
2022/04/26 05:15:00;;;;;;;7.17;3.93;;;12.10;99.90;;;;;;4996068;28;20641;-95
2022/04/26 05:17:29;;;;;;;7.63;4.00;;;12.20;99.90;;;;;;4980840;28;20598;-95
2022/04/26 05:19:55;;;;;;;5.60;3.77;;;12.20;99.90;;;;;;4980061;28;20174;-95
2022/04/26 05:22:21;;;;;;;9.83;3.90;;;12.20;99.90;;;;;;4996767;28;20223;-94
2022/04/26 05:24:54;;;;;;;6.57;4.20;;;12.10;99.90;;;;;;4995867;28;20279;-95
2022/04/26 05:27:25;;;;;;;6.13;3.80;;;11.90;99.90;;;;;;4996236;28;20692;-95
2022/04/26 05:29:51;;;;;;;6.00;3.70;;;11.90;99.90;;;;;;4996146;28;20184;-91
2022/04/26 05:32:25;;;;;;;6.57;4.30;;;11.90;99.90;;;;;;4980300;28;20178;-90
2022/04/26 05:34:58;;;;;;;6.57;4.10;;;11.80;99.90;;;;;;4988381;28;20181;-91
2022/04/26 05:37:25;;;;;;;7.23;4.80;;;11.70;99.90;;;;;;4976589;28;20269;-91
2022/04/26 05:39:51;;;;;;;11.40;4.60;;;11.60;99.90;;;;;;4982930;28;20540;-87
2022/04/26 05:42:20;;;;;;;7.13;4.33;;;11.60;99.90;;;;;;4976400;28;20210;-89
2022/04/26 05:44:46;;;;;;;9.07;4.70;;;11.50;99.90;;;;;;4992194;28;20209;-92
2022/04/26 05:47:12;;;;;;;8.10;4.67;;;11.50;99.90;;;;;;4990717;28;20201;-92
2022/04/26 05:49:38;;;;;;;7.10;4.63;;;11.50;99.90;;;;;;4976236;28;20182;-92
2022/04/26 05:52:04;;;;;;;6.23;4.87;;;11.40;99.90;;;;;;4995121;28;20177;-92
2022/04/26 05:54:31;;;;;;;7.47;5.17;;;11.40;99.90;;;;;;4997618;28;20174;-92
2022/04/26 06:25:25;;;;;;;7.27;5.40;;;11.90;99.90;;;;;;5989905;23;20195;-91
2022/04/26 06:39:55;;;;;;;;;;;;;;;;;;;;;
2022/04/26 06:50:22;;;;;;;;;;;;;;;;;;;;;
2022/04/26 06:53:42;;;;;;;;;;;;;;;;;;;;;
2022/04/26 06:56:29;;;;;;;6.43;3.97;;;12.80;99.90;;;;;;4880042;29;20202;-92
2022/04/26 11:09:54;;;;;;;4.57;3.50;;;16.60;92.60;;;;;;5034059;28;20222;-89
2022/04/26 11:12:21;;;;;;;7.33;3.93;;;16.90;92.00;;;;;;5018083;28;20258;-90
2022/04/26 11:14:49;;;;;;;8.17;4.27;;;17.30;91.90;;;;;;5017547;28;20234;-90
2022/04/26 11:17:16;;;;;;;8.27;4.50;;;18.00;91.20;;;;;;5018092;28;20296;-90
2022/04/26 11:19:50;;;;;;;7.23;3.60;;;18.70;89.90;;;;;;5017794;28;20229;-90
2022/04/26 11:22:17;;;;;;;4.77;3.07;;;19.70;86.10;;;;;;5018096;28;20192;-90
2022/04/26 11:30:24;;;;;;;6.20;3.20;;;22.60;77.50;;;;;;5035568;28;20227;-90
2022/04/26 11:32:51;;;;;;;6.17;3.00;;;23.20;74.20;;;;;;5017477;28;20177;-91
2022/04/26 11:35:19;;;;;;;8.03;3.13;;;23.20;72.80;;;;;;5017477;28;20716;-91
2022/04/26 11:37:55;;;;;;;5.60;3.00;;;23.40;72.20;;;;;;5017424;28;20200;-90
2022/04/26 11:40:28;;;;;;;4.00;2.90;;;23.70;69.90;;;;;;5017403;28;20226;-90
2022/04/26 11:43:04;;;;;;;4.63;2.70;;;23.80;68.90;;;;;;5016938;28;20215;-91
2022/04/26 11:45:33;;;;;;;8.03;3.00;;;23.50;68.90;;;;;;5017310;28;20214;-91
2022/04/26 11:47:59;;;;;;;5.60;2.63;;;23.00;68.20;;;;;;5017271;28;20180;-91
2022/04/26 11:50:29;;;;;;;5.43;3.57;;;22.30;69.70;;;;;;5017155;28;20179;-91
2022/04/26 11:53:04;;;;;;;6.23;2.80;;;22.40;69.80;;;;;;5016972;28;20578;-90
2022/04/26 11:55:33;;;;;;;4.97;3.10;;;22.10;70.00;;;;;;5017353;28;20168;-91
2022/04/26 11:58:09;;;;;;;8.83;3.07;;;21.80;70.60;;;;;;4997546;28;20272;-91
2022/04/26 12:00:47;;;;;;;6.77;3.20;;;21.50;71.70;;;;;;4997316;28;20183;-91
2022/04/26 12:03:13;;;;;;;4.40;2.93;;;21.00;73.00;;;;;;4997458;28;20678;-90
2022/04/26 12:05:40;;;;;;;5.70;3.03;;;20.90;72.20;;;;;;4997319;28;20177;-91
2022/04/26 12:08:12;;;;;;;5.93;3.17;;;20.80;70.90;;;;;;4997258;28;20227;-91
2022/04/26 12:10:38;;;;;;;5.10;2.50;;;21.30;70.50;;;;;;4997408;28;20181;-91
2022/04/26 12:13:08;;;;;;;3.97;3.17;;;22.10;69.10;;;;;;4996928;28;20181;-91
2022/04/26 12:15:38;;;;;;;3.27;2.90;;;22.70;67.10;;;;;;4997202;28;20268;-91
2022/04/26 12:18:13;;;;;;;4.60;2.90;;;23.90;65.30;;;;;;4996748;28;20203;-91
2022/04/26 12:21:00;;;;;;;6.53;2.83;;;25.20;63.60;;;;;;4997195;28;20191;-91
2022/04/26 12:23:27;;;;;;;6.17;3.03;;;26.10;61.60;;;;;;4997373;28;20212;-92
2022/04/26 12:26:02;;;;;;;5.20;2.80;;;26.40;61.00;;;;;;4997099;28;20204;-92
2022/04/26 12:28:28;;;;;;;4.90;2.53;;;26.00;61.00;;;;;;4997564;28;20217;-91
2022/04/26 12:30:54;;;;;;;7.00;3.07;;;26.50;59.50;;;;;;4997042;28;20675;-92
2022/04/26 12:33:28;;;;;;;4.97;2.70;;;26.80;57.80;;;;;;4996990;28;20315;-92
2022/04/26 12:35:58;;;;;;;7.10;3.30;;;26.50;58.10;;;;;;4996731;28;20252;-91
2022/04/26 12:38:24;;;;;;;7.77;3.87;;;25.80;59.10;;;;;;4996647;28;20232;-91
2022/04/26 12:41:06;;;;;;;6.43;3.53;;;25.00;59.20;;;;;;4997022;28;20208;-91
2022/04/26 12:43:33;;;;;;;6.37;3.90;;;24.10;61.00;;;;;;4996932;28;20222;-91
2022/04/26 12:46:02;;;;;;;5.90;3.73;;;23.40;62.90;;;;;;4996484;28;20181;-91
2022/04/26 12:51:27;;;;;;;8.80;3.33;;;22.60;65.20;;;;;;5014586;28;20173;-91
2022/04/26 12:54:05;;;;;;;4.40;3.70;;;22.10;65.80;;;;;;4996438;28;20204;-91
2022/04/26 12:56:30;;;;;;;7.53;3.80;;;21.90;66.00;;;;;;4996648;28;20684;-90
2022/04/26 12:58:56;;;;;;;6.30;4.67;;;21.60;65.90;;;;;;4996409;28;20320;-90
2022/04/26 13:01:22;;;;;;;9.10;4.00;;;21.40;64.90;;;;;;4996861;28;20188;-91
2022/04/26 13:03:47;;;;;;;5.87;4.23;;;21.30;65.70;;;;;;4995813;28;20216;-91
2022/04/26 13:06:18;;;;;;;5.57;3.63;;;21.40;64.70;;;;;;4996631;28;20170;-91
2022/04/26 13:08:48;;;;;;;6.47;4.20;;;21.70;65.10;;;;;;4996104;28;20314;-90
2022/04/26 13:11:17;;;;;;;10.80;5.23;;;21.90;65.20;;;;;;4996529;28;20177;-91
2022/04/26 13:13:46;;;;;;;6.33;5.07;;;21.90;64.70;;;;;;4996322;28;20181;-90
2022/04/26 13:16:12;;;;;;;6.53;5.27;;;22.10;65.50;;;;;;4996259;28;20193;-90
2022/04/26 13:18:38;;;;;;;9.00;4.27;;;22.70;65.70;;;;;;4996249;28;20264;-90
2022/04/26 13:21:05;;;;;;;6.10;4.30;;;24.10;62.80;;;;;;4996042;28;20177;-90
2022/04/26 13:23:33;;;;;;;7.63;4.27;;;25.10;59.70;;;;;;4996294;28;20228;-91
2022/04/26 13:26:00;;;;;;;9.73;4.23;;;25.80;59.40;;;;;;4996606;28;20227;-91
2022/04/26 13:28:26;;;;;;;6.70;3.90;;;25.70;58.40;;;;;;4996530;28;20177;-91
2022/04/26 13:30:52;;;;;;;5.07;3.73;;;25.90;58.00;;;;;;4996510;28;20184;-91
2022/04/26 13:33:18;;;;;;;5.67;3.60;;;25.60;58.60;;;;;;4996680;28;20181;-90
2022/04/26 13:35:43;;;;;;;5.73;4.00;;;25.80;57.60;;;;;;4997672;28;20717;-90
2022/04/26 13:38:13;;;;;;;6.67;3.90;;;25.50;58.10;;;;;;5005733;28;20237;-91
2022/04/26 13:40:41;;;;;;;5.93;3.63;;;25.30;57.50;;;;;;5006229;28;20173;-91
2022/04/26 13:43:07;;;;;;;7.50;3.97;;;25.40;57.80;;;;;;4998552;28;20785;-90
2022/04/26 13:45:34;;;;;;;6.37;3.97;;;25.40;58.40;;;;;;4996306;28;20205;-91
2022/04/26 13:48:04;;;;;;;5.53;3.77;;;25.40;57.40;;;;;;4996156;28;20200;-91
2022/04/26 13:50:29;;;;;;;6.53;3.97;;;25.30;57.40;;;;;;4996394;28;20173;-91
2022/04/26 13:52:56;;;;;;;9.10;4.00;;;25.10;58.40;;;;;;4995782;28;20181;-91
2022/04/26 13:55:26;;;;;;;6.07;4.50;;;24.80;57.20;;;;;;4996224;28;20187;-91
2022/04/26 13:57:54;;;;;;;8.07;4.10;;;24.40;58.20;;;;;;4995856;28;20252;-90
2022/04/26 14:00:20;;;;;;;6.70;4.20;;;24.10;58.20;;;;;;4996187;28;20181;-91
2022/04/26 14:02:46;;;;;;;7.57;3.87;;;23.50;58.90;;;;;;4996036;28;20197;-91
2022/04/26 14:05:13;;;;;;;4.77;3.53;;;23.30;58.90;;;;;;4995985;28;20185;-91
2022/04/26 14:07:39;;;;;;;8.77;3.63;;;23.30;58.10;;;;;;4995465;28;20233;-90
2022/04/26 14:10:05;;;;;;;8.00;4.27;;;23.10;58.40;;;;;;4995924;28;20185;-91
2022/04/26 14:12:31;;;;;;;3.70;3.30;;;22.90;58.50;;;;;;4995909;28;20192;-91
2022/04/26 14:23:10;;;;;;;4.73;3.33;;;22.40;60.30;;;;;;5016863;28;20282;-90
2022/04/26 14:25:37;;;;;;;4.80;3.20;;;22.50;58.80;;;;;;4999529;28;20170;-91
2022/04/26 14:28:03;;;;;;;6.30;3.80;;;22.40;59.60;;;;;;4999276;28;20660;-90
2022/04/26 14:30:29;;;;;;;6.23;3.50;;;22.40;58.80;;;;;;5000900;28;20209;-91
2022/04/26 14:32:57;;;;;;;7.07;3.83;;;22.30;59.10;;;;;;5002597;28;20181;-90
2022/04/26 14:35:23;;;;;;;7.03;3.60;;;22.40;59.10;;;;;;5001339;28;20263;-88
2022/04/26 14:37:51;;;;;;;6.57;3.80;;;22.30;60.00;;;;;;4998622;28;20219;-89
2022/04/26 14:40:17;;;;;;;6.57;3.93;;;22.30;59.80;;;;;;4999109;28;20551;-90
2022/04/26 14:42:46;;;;;;;8.57;4.23;;;22.00;60.20;;;;;;4998726;28;20197;-91
2022/04/26 14:45:12;;;;;;;10.10;4.27;;;21.90;60.10;;;;;;4998836;28;20275;-91
2022/04/26 14:47:38;;;;;;;7.03;3.70;;;21.80;60.00;;;;;;4999049;28;20196;-90
2022/04/26 14:50:05;;;;;;;7.77;4.10;;;21.80;60.20;;;;;;4998928;28;20174;-90
2022/04/26 14:52:31;;;;;;;5.67;3.77;;;21.50;61.00;;;;;;4998436;28;20185;-91
2022/04/26 14:55:01;;;;;;;8.67;4.10;;;21.20;61.70;;;;;;4998792;28;20184;-90
2022/04/26 14:57:27;;;;;;;6.13;4.37;;;21.10;62.40;;;;;;4998907;28;20197;-91
2022/04/26 14:59:53;;;;;;;8.47;4.40;;;21.10;62.60;;;;;;4998412;28;20173;-90
2022/04/26 15:02:19;;;;;;;11.03;4.13;;;21.10;61.40;;;;;;4998658;28;20223;-91
2022/04/26 15:04:47;;;;;;;4.97;4.17;;;21.00;60.70;;;;;;4998114;28;20181;-91
2022/04/26 15:07:13;;;;;;;9.10;4.23;;;20.90;60.50;;;;;;4998402;28;20207;-90
2022/04/26 15:09:43;;;;;;;9.40;4.77;;;20.60;62.00;;;;;;4998133;28;20232;-91
2022/04/26 15:17:48;;;;;;;9.73;4.87;;;20.10;64.20;;;;;;5016066;28;20181;-91
2022/04/26 15:20:14;;;;;;;8.23;4.83;;;20.10;64.10;;;;;;4997900;28;20183;-90
2022/04/26 15:22:40;;;;;;;7.20;4.73;;;20.10;63.30;;;;;;4998208;28;20194;-91
2022/04/26 15:25:09;;;;;;;9.57;4.60;;;20.20;63.30;;;;;;4998231;28;20180;-91
2022/04/26 15:27:36;;;;;;;7.97;4.53;;;20.20;64.10;;;;;;4997581;28;20205;-91
2022/04/26 15:30:03;;;;;;;8.57;4.23;;;20.20;64.00;;;;;;4998067;28;20230;-90
2022/04/26 15:32:29;;;;;;;8.70;4.50;;;20.60;63.10;;;;;;4998226;28;20243;-91
2022/04/26 15:34:55;;;;;;;6.37;3.97;;;20.50;63.10;;;;;;4998009;28;20321;-91
2022/04/26 15:37:21;;;;;;;11.10;4.23;;;20.50;62.90;;;;;;4997930;28;20660;-91
2022/04/26 15:39:47;;;;;;;7.23;3.77;;;20.40;63.40;;;;;;4997642;28;20196;-91
2022/04/26 15:42:14;;;;;;;5.40;3.97;;;20.40;63.60;;;;;;4997779;28;20636;-91
2022/04/26 15:44:40;;;;;;;5.13;3.90;;;20.30;64.00;;;;;;4997721;28;20563;-91
2022/04/26 15:47:06;;;;;;;10.93;3.70;;;20.40;64.20;;;;;;4997595;28;20270;-90
2022/04/26 15:49:32;;;;;;;6.57;3.90;;;20.50;64.00;;;;;;4997179;28;20184;-90
2022/04/26 15:51:58;;;;;;;7.47;4.03;;;20.80;63.40;;;;;;4997031;28;20172;-90
2022/04/26 15:54:24;;;;;;;6.70;4.03;;;20.80;63.50;;;;;;4996947;28;20288;-90
2022/04/26 15:56:50;;;;;;;7.83;4.03;;;20.70;63.60;;;;;;4997029;28;20648;-90
2022/04/26 15:59:15;;;;;;;7.50;3.80;;;20.40;63.60;;;;;;4996730;28;20265;-90
2022/04/26 16:01:41;;;;;;;11.67;4.90;;;20.00;64.90;;;;;;4996961;28;20342;-90
2022/04/26 16:04:11;;;;;;;6.83;4.17;;;19.90;65.00;;;;;;4996304;28;20211;-89
2022/04/26 16:06:41;;;;;;;7.57;4.60;;;19.80;65.30;;;;;;4996517;28;20577;-91
2022/04/26 16:22:50;;;;;;;7.33;4.30;;;19.30;66.50;;;;;;5014854;28;20570;-91
2022/04/26 16:25:16;;;;;;;8.13;3.77;;;19.20;66.70;;;;;;4997170;28;20183;-89
2022/04/26 16:27:42;;;;;;;7.83;4.20;;;19.00;66.80;;;;;;4997431;28;20548;-91
2022/04/26 16:30:10;;;;;;;6.53;4.03;;;19.00;67.50;;;;;;4997076;28;20654;-90
2022/04/26 16:32:35;;;;;;;7.23;4.03;;;19.00;67.10;;;;;;4996853;28;20187;-90
2022/04/26 16:35:01;;;;;;;8.10;3.73;;;19.10;67.60;;;;;;4996687;28;20721;-90
2022/04/26 16:37:27;;;;;;;6.27;3.80;;;19.00;68.10;;;;;;4996369;28;20641;-90
2022/04/26 16:39:52;;;;;;;15.50;4.53;;;18.90;67.90;;;;;;4996072;28;20633;-90
2022/04/26 16:42:18;;;;;;;6.17;3.63;;;18.70;68.90;;;;;;4996619;28;20173;-91
2022/04/26 16:44:44;;;;;;;5.63;3.50;;;18.80;69.60;;;;;;4996751;28;20216;-90
2022/04/26 16:47:10;;;;;;;8.10;4.17;;;18.60;69.60;;;;;;4995972;28;20176;-90
2022/04/26 16:49:36;;;;;;;9.90;3.90;;;18.80;69.30;;;;;;4995570;28;20177;-90
2022/04/26 16:52:03;;;;;;;7.50;3.70;;;18.60;70.20;;;;;;4996683;28;20177;-91
2022/04/26 16:54:29;;;;;;;5.50;3.70;;;18.50;69.80;;;;;;4996602;28;20180;-89
2022/04/26 16:56:54;;;;;;;8.20;4.03;;;18.50;70.30;;;;;;4996639;28;20197;-90
2022/04/26 16:59:22;;;;;;;9.03;3.90;;;18.40;70.40;;;;;;4996371;28;20173;-90
2022/04/26 17:01:48;;;;;;;10.93;3.80;;;18.00;70.70;;;;;;4995377;28;20634;-90
2022/04/26 17:04:14;;;;;;;6.57;4.10;;;18.00;71.40;;;;;;4996821;28;20250;-90
2022/04/26 17:06:48;;;;;;;6.43;3.70;;;18.10;71.30;;;;;;4996398;28;20258;-95
2022/04/26 17:09:16;;;;;;;8.17;3.90;;;18.20;70.90;;;;;;4996905;28;20196;-91
2022/04/26 17:11:42;;;;;;;7.13;3.83;;;18.00;71.20;;;;;;4996356;28;20591;-90
2022/04/26 17:14:10;;;;;;;8.07;3.50;;;18.10;71.20;;;;;;4996528;28;20208;-90
2022/04/26 17:16:36;;;;;;;8.13;4.00;;;18.10;71.10;;;;;;4997415;28;20191;-91
2022/04/26 17:19:02;;;;;;;8.20;3.53;;;18.30;71.20;;;;;;4996953;28;20241;-91
2022/04/26 17:21:29;;;;;;;7.17;3.53;;;18.70;70.60;;;;;;4996732;28;20177;-92
2022/04/26 17:23:56;;;;;;;7.63;3.50;;;18.70;69.80;;;;;;4996608;28;20218;-91
2022/04/26 17:26:21;;;;;;;5.50;3.30;;;18.60;69.50;;;;;;4996775;28;20215;-96
2022/04/26 17:28:47;;;;;;;6.87;3.93;;;18.70;69.60;;;;;;4996842;28;20222;-92
2022/04/26 17:31:14;;;;;;;4.30;3.30;;;18.80;68.70;;;;;;4995883;28;20668;-94
2022/04/26 17:33:44;;;;;;;6.77;3.50;;;18.70;69.10;;;;;;4996893;28;20248;-93
2022/04/26 17:36:11;;;;;;;4.97;3.77;;;18.40;69.60;;;;;;4996627;28;20185;-93
2022/04/26 17:38:37;;;;;;;6.50;3.70;;;17.90;70.70;;;;;;4996749;28;20181;-92
2022/04/26 17:41:02;;;;;;;5.60;3.97;;;17.50;71.30;;;;;;4995571;28;20638;-93
2022/04/26 17:43:28;;;;;;;5.33;3.97;;;17.40;71.80;;;;;;4996148;28;20227;-90
2022/04/26 17:45:54;;;;;;;5.50;3.80;;;17.30;71.70;;;;;;4996093;28;20183;-91
2022/04/26 17:48:19;;;;;;;9.63;3.70;;;17.40;72.40;;;;;;4995135;28;20215;-90
2022/04/26 17:50:45;;;;;;;5.33;3.90;;;17.40;72.20;;;;;;4978729;28;20185;-90
2022/04/26 17:58:41;;;;;;;6.63;3.73;;;17.20;72.00;;;;;;5017109;28;20702;-89
2022/04/26 18:01:06;;;;;;;5.97;3.77;;;17.00;72.10;;;;;;4999978;28;20177;-90
2022/04/26 18:03:33;;;;;;;6.77;4.47;;;16.90;73.10;;;;;;4999875;28;20219;-87
2022/04/26 18:08:27;;;;;;;7.63;3.83;;;16.50;74.10;;;;;;5033532;28;20569;-91
2022/04/26 18:10:54;;;;;;;9.20;4.20;;;16.30;74.90;;;;;;5024572;28;20191;-90
2022/04/26 18:13:20;;;;;;;8.63;4.50;;;16.10;75.40;;;;;;5019736;28;20184;-89
2022/04/26 18:15:46;;;;;;;7.57;3.80;;;16.10;75.90;;;;;;5020652;28;20174;-91
2022/04/26 18:18:12;;;;;;;4.60;3.70;;;16.10;76.30;;;;;;5015396;28;20175;-91
2022/04/26 18:20:38;;;;;;;6.80;4.17;;;16.00;76.60;;;;;;5019114;28;20181;-90
2022/04/26 18:23:04;;;;;;;5.00;3.97;;;15.90;77.10;;;;;;5030481;28;20684;-89
2022/04/26 18:28:15;;;;;;;6.07;4.30;;;15.70;78.10;;;;;;5041228;28;20210;-90
2022/04/26 18:30:41;;;;;;;11.17;4.13;;;15.40;79.00;;;;;;5019060;28;20181;-90
2022/04/26 18:33:07;;;;;;;6.83;4.83;;;15.30;79.60;;;;;;5018722;28;20194;-90
2022/04/26 18:35:32;;;;;;;4.97;3.77;;;15.40;79.50;;;;;;5018110;28;20176;-90
2022/04/26 18:37:58;;;;;;;11.97;4.57;;;15.40;79.10;;;;;;5019058;28;20186;-90
2022/04/26 18:40:25;;;;;;;5.47;4.63;;;15.50;79.00;;;;;;5019013;28;20174;-91
2022/04/26 18:42:51;;;;;;;7.30;5.07;;;15.40;79.40;;;;;;5016364;28;20199;-90
2022/04/26 18:45:18;;;;;;;9.10;4.53;;;15.30;80.20;;;;;;5018200;28;20194;-91
2022/04/26 18:47:44;;;;;;;9.90;4.37;;;15.20;80.60;;;;;;5018546;28;20181;-91
2022/04/26 18:50:11;;;;;;;7.37;4.40;;;15.20;80.80;;;;;;5019123;28;20182;-91
2022/04/26 18:52:37;;;;;;;7.03;4.40;;;15.20;80.60;;;;;;5018550;28;20174;-91
2022/04/26 18:55:03;;;;;;;7.83;4.73;;;15.20;81.20;;;;;;5018487;28;20529;-91
2022/04/26 18:57:29;;;;;;;9.43;5.07;;;15.20;81.30;;;;;;5006788;28;20214;-91
2022/04/26 18:59:56;;;;;;;7.17;4.53;;;15.10;81.20;;;;;;4998897;28;20332;-90
2022/04/26 19:02:22;;;;;;;6.07;4.53;;;15.10;81.60;;;;;;4997666;28;20184;-89
2022/04/26 19:04:47;;;;;;;6.10;4.70;;;14.80;82.10;;;;;;5008894;28;20625;-90
2022/04/26 19:07:13;;;;;;;8.30;5.33;;;14.80;82.00;;;;;;5018194;28;20201;-91
2022/04/26 19:12:15;;;;;;;5.43;4.77;;;14.80;82.30;;;;;;5018029;28;20217;-90
2022/04/26 19:12:24;;;;;;;6.90;5.00;;;14.70;82.30;;;;;;5035050;28;20181;-91
2022/04/26 19:14:51;;;;;;;6.70;4.57;;;14.60;83.20;;;;;;5017744;28;20193;-91
2022/04/26 19:17:19;;;;;;;7.80;4.50;;;14.60;83.10;;;;;;5012340;28;20658;-90
2022/04/26 19:19:45;;;;;;;5.97;4.97;;;14.50;83.80;;;;;;5012495;28;20635;-90
2022/04/26 19:22:10;;;;;;;8.57;4.53;;;14.50;83.50;;;;;;5014517;28;20234;-91
2022/04/26 19:24:36;;;;;;;6.03;4.40;;;14.50;83.90;;;;;;5012269;28;20190;-90
2022/04/26 19:27:02;;;;;;;9.67;4.87;;;14.30;84.20;;;;;;5014464;28;20183;-90
2022/04/26 19:29:28;;;;;;;7.67;4.80;;;14.20;84.30;;;;;;5013015;28;20177;-91
2022/04/26 19:31:54;;;;;;;7.17;5.03;;;14.40;84.20;;;;;;5011456;28;20196;-91
2022/04/26 19:34:20;;;;;;;7.13;4.90;;;14.30;84.50;;;;;;5011257;28;20221;-90
2022/04/26 19:36:48;;;;;;;6.07;4.97;;;14.30;84.40;;;;;;5012059;28;20252;-91
2022/04/26 19:39:15;;;;;;;8.13;5.10;;;14.10;85.30;;;;;;5014536;28;20189;-90
2022/04/26 19:41:41;;;;;;;8.77;5.27;;;14.30;84.80;;;;;;5014150;28;20181;-91
2022/04/26 19:44:07;;;;;;;11.47;4.97;;;14.20;84.60;;;;;;5012463;28;20236;-90
2022/04/26 19:46:42;;;;;;;8.43;4.90;;;14.10;85.60;;;;;;5017760;28;20629;-92
2022/04/26 19:49:09;;;;;;;8.10;4.80;;;14.00;86.20;;;;;;5010310;28;20220;-91
2022/04/26 19:51:36;;;;;;;9.57;5.00;;;14.00;86.40;;;;;;5014190;28;20296;-91
2022/04/26 19:54:15;;;;;;;6.87;4.90;;;13.90;86.70;;;;;;5013932;28;20188;-92
2022/04/26 19:56:59;;;;;;;8.40;5.17;;;13.80;87.50;;;;;;5003416;28;20205;-94
2022/04/26 19:59:27;;;;;;;8.53;5.07;;;13.90;87.30;;;;;;5013995;28;20177;-93
2022/04/26 20:01:53;;;;;;;8.83;5.20;;;13.60;88.50;;;;;;5010290;28;20193;-90
2022/04/26 20:04:21;;;;;;;7.13;4.80;;;13.50;89.00;;;;;;5013667;28;20275;-93
2022/04/26 20:06:46;;;;;;;7.13;5.20;;;13.60;88.90;;;;;;5012694;28;20586;-93
2022/04/26 20:09:12;;;;;;;11.53;5.10;;;13.60;88.90;;;;;;5014538;28;20267;-92
2022/04/26 20:11:38;;;;;;;6.07;4.77;;;13.50;89.50;;;;;;5016702;28;20172;-93
2022/04/26 20:14:05;;;;;;;8.33;5.53;;;13.30;90.20;;;;;;5016820;28;20600;-93
2022/04/26 20:16:31;;;;;;;8.07;5.20;;;13.40;90.20;;;;;;5016677;28;20208;-90
2022/04/26 20:18:57;;;;;;;9.33;5.87;;;13.60;90.10;;;;;;5002306;28;20193;-91
2022/04/26 20:21:22;;;;;;;9.27;5.53;;;13.60;90.10;;;;;;4997319;28;20204;-94
2022/04/26 20:23:55;;;;;;;8.93;5.57;;;13.60;90.00;;;;;;4997345;28;20211;-93
2022/04/26 20:31:51;;;;;;;10.47;5.70;;;13.50;90.60;;;;;;5014706;28;20228;-90
2022/04/26 20:34:16;;;;;;;9.63;5.73;;;13.50;90.50;;;;;;4996632;28;20213;-90
2022/04/26 20:36:42;;;;;;;7.67;6.00;;;13.40;90.80;;;;;;4996757;28;20252;-93
2022/04/26 20:39:08;;;;;;;8.50;6.30;;;13.30;91.20;;;;;;4998576;28;20185;-92
2022/04/26 20:41:34;;;;;;;7.37;5.93;;;13.20;91.20;;;;;;4996677;28;20177;-91
2022/04/26 20:43:59;;;;;;;9.93;6.43;;;13.20;91.50;;;;;;4996496;28;20209;-91
2022/04/26 20:46:25;;;;;;;10.53;6.90;;;13.00;92.10;;;;;;4997919;28;20209;-91
2022/04/26 20:48:51;;;;;;;7.23;6.00;;;12.80;92.40;;;;;;5001930;28;20231;-91
2022/04/26 20:51:16;;;;;;;10.13;6.17;;;12.60;93.00;;;;;;5008768;28;20173;-91
2022/04/26 20:53:42;;;;;;;13.63;5.77;;;12.50;93.40;;;;;;5002290;28;20200;-91
2022/04/26 20:56:08;;;;;;;11.33;6.20;;;12.30;94.20;;;;;;5011956;28;20234;-91
2022/04/26 20:58:35;;;;;;;7.90;6.27;;;12.20;94.70;;;;;;5012314;28;20196;-91
2022/04/26 21:01:00;;;;;;;9.23;6.13;;;12.20;94.70;;;;;;5012431;28;20712;-89
2022/04/26 21:03:26;;;;;;;10.07;6.37;;;12.50;94.20;;;;;;5014090;28;20293;-93
2022/04/26 21:05:52;;;;;;;10.83;6.27;;;12.50;94.10;;;;;;5015864;28;20549;-91
2022/04/26 21:08:17;;;;;;;11.03;6.70;;;12.60;94.20;;;;;;5015666;28;20633;-91
2022/04/26 21:10:43;;;;;;;11.63;6.80;;;12.50;94.30;;;;;;5015982;28;20594;-91
2022/04/26 21:13:41;;;;;;;9.20;6.50;;;12.40;94.70;;;;;;5016400;28;20173;-91
2022/04/26 21:16:00;;;;;;;9.63;6.30;;;12.20;95.30;;;;;;5029057;28;20173;-91
2022/04/26 21:18:26;;;;;;;7.67;6.20;;;12.10;95.80;;;;;;5008354;28;20622;-92
2022/04/26 21:20:52;;;;;;;9.50;6.77;;;12.10;95.80;;;;;;5008901;28;20214;-91
2022/04/26 21:23:18;;;;;;;11.87;6.60;;;12.00;96.20;;;;;;5013540;28;20232;-91
2022/04/26 21:25:44;;;;;;;9.70;6.70;;;11.90;96.40;;;;;;5017606;28;20206;-91
2022/04/26 21:28:10;;;;;;;9.27;6.57;;;12.20;96.30;;;;;;5000144;28;20174;-90
2022/04/26 21:30:36;;;;;;;11.60;7.50;;;12.20;96.10;;;;;;5012432;28;20560;-89
2022/04/26 21:33:02;;;;;;;10.77;7.27;;;12.10;96.30;;;;;;5018666;28;20172;-91
2022/04/26 21:35:28;;;;;;;9.40;7.30;;;12.20;96.10;;;;;;5019466;28;20263;-91
2022/04/26 21:37:54;;;;;;;13.77;7.07;;;12.20;96.20;;;;;;5019543;28;20176;-91
2022/04/26 21:40:20;;;;;;;11.20;7.60;;;12.20;96.60;;;;;;5020082;28;20231;-91
2022/04/26 21:42:46;;;;;;;8.47;7.00;;;12.20;96.60;;;;;;5007412;28;20216;-91
2022/04/26 21:45:11;;;;;;;8.40;7.50;;;12.10;97.10;;;;;;4999790;28;20184;-91
2022/04/26 21:47:38;;;;;;;10.93;7.30;;;11.90;97.50;;;;;;4998435;28;20182;-91
2022/04/26 21:52:48;;;;;;;10.50;7.87;;;11.60;98.70;;;;;;5015291;28;20542;-91
2022/04/26 21:55:14;;;;;;;12.73;7.30;;;11.70;98.80;;;;;;4998253;28;20179;-92
2022/04/26 21:57:40;;;;;;;9.43;7.37;;;11.50;99.40;;;;;;4998004;28;20197;-91
2022/04/26 22:00:34;;;;;;;11.87;7.20;;;11.60;99.50;;;;;;4998248;28;20210;-92
2022/04/26 22:03:01;;;;;;;13.70;7.53;;;11.50;99.90;;;;;;4977153;28;20570;-92
2022/04/26 22:05:30;;;;;;;13.00;7.47;;;11.40;99.90;;;;;;5005146;28;20199;-92
2022/04/26 22:07:57;;;;;;;9.13;7.30;;;11.30;99.90;;;;;;5017886;28;20189;-92
2022/04/26 22:10:23;;;;;;;11.10;7.60;;;11.20;99.90;;;;;;5019076;28;20629;-92
2022/04/26 22:12:49;;;;;;;11.07;7.83;;;11.30;99.90;;;;;;5019358;28;20173;-92
2022/04/26 22:15:14;;;;;;;16.13;7.40;;;11.20;99.90;;;;;;5018871;28;20173;-91
2022/04/26 22:17:40;;;;;;;12.17;7.57;;;11.20;99.90;;;;;;5018954;28;20231;-92
2022/04/26 22:20:07;;;;;;;12.17;7.47;;;11.10;99.90;;;;;;5018775;28;20633;-92
2022/04/26 22:22:33;;;;;;;14.70;7.67;;;11.00;99.90;;;;;;5018646;28;20172;-92